JST858 YPAD-YPPH
Flight info
| Callsign | JST858 |
|---|---|
| Flight time | N/A |
| Altitude | 36000 |
| Route | N0451F360 DCT GILES Q33 ESP Q158 KABLI DCT |
| Aircraft | A21N/M-SADE3FGHIJ3J4J5RWYZ/LB1D1 |
Departure
| Time | 2026-05-04 01:42 |
|---|---|
| Airport | Adelaide International Airport (YPAD) |
Arrival
| Time | N/A |
|---|---|
| Airport | Perth International Airport (YPPH) |
| Time | Latitude | Longitude | Altitude | Speed | Heading |
|---|---|---|---|---|---|
| 2026-05-04 00:47 | -34.94110 | 138.53591 | 31 ft | 0 kts | 320° |
| 2026-05-04 01:33 | -34.94110 | 138.53592 | 31 ft | 1 kts | 320° |
| 2026-05-04 01:33 | -34.94130 | 138.53608 | 31 ft | 4 kts | 335° |
| 2026-05-04 01:34 | -34.94152 | 138.53622 | 31 ft | 4 kts | 307° |
| 2026-05-04 01:34 | -34.94161 | 138.53644 | 31 ft | 4 kts | 270° |
| 2026-05-04 01:34 | -34.94160 | 138.53666 | 31 ft | 0 kts | 270° |
| 2026-05-04 01:37 | -34.94160 | 138.53665 | 31 ft | 0 kts | 270° |
| 2026-05-04 01:37 | -34.94160 | 138.53658 | 31 ft | 1 kts | 270° |
| 2026-05-04 01:37 | -34.94169 | 138.53641 | 31 ft | 4 kts | 210° |
| 2026-05-04 01:38 | -34.94206 | 138.53636 | 31 ft | 7 kts | 174° |
| 2026-05-04 01:38 | -34.94249 | 138.53676 | 31 ft | 10 kts | 105° |
| 2026-05-04 01:38 | -34.94219 | 138.53759 | 31 ft | 12 kts | 53° |
| 2026-05-04 01:38 | -34.94162 | 138.53842 | 31 ft | 14 kts | 48° |
| 2026-05-04 01:39 | -34.94099 | 138.53934 | 31 ft | 15 kts | 50° |
| 2026-05-04 01:39 | -34.94030 | 138.54033 | 31 ft | 16 kts | 50° |
| 2026-05-04 01:39 | -34.93965 | 138.54131 | 31 ft | 8 kts | 51° |
| 2026-05-04 01:39 | -34.93959 | 138.54200 | 31 ft | 10 kts | 131° |
| 2026-05-04 01:40 | -34.94015 | 138.54259 | 31 ft | 11 kts | 140° |
| 2026-05-04 01:40 | -34.94058 | 138.54304 | 31 ft | 4 kts | 139° |
| 2026-05-04 01:40 | -34.94087 | 138.54290 | 31 ft | 6 kts | 223° |
| 2026-05-04 01:40 | -34.94099 | 138.54275 | 31 ft | 0 kts | 229° |
| 2026-05-04 01:41 | -34.94172 | 138.54168 | 31 ft | 49 kts | 231° |
| 2026-05-04 01:41 | -34.94545 | 138.53627 | 31 ft | 115 kts | 230° |
| 2026-05-04 01:41 | -34.95176 | 138.52707 | 60 ft | 160 kts | 230° |
| 2026-05-04 01:42 | -34.95882 | 138.51688 | 699 ft | 154 kts | 230° |
| 2026-05-04 01:42 | -34.96591 | 138.50676 | 1251 ft | 164 kts | 229° |
| 2026-05-04 01:42 | -34.97378 | 138.49541 | 1685 ft | 185 kts | 230° |
| 2026-05-04 01:42 | -34.98236 | 138.48286 | 2231 ft | 202 kts | 231° |
| 2026-05-04 01:43 | -34.98861 | 138.47375 | 2492 ft | 219 kts | 232° |
| 2026-05-04 01:43 | -35.00235 | 138.45372 | 3270 ft | 240 kts | 233° |
| 2026-05-04 01:43 | -35.01311 | 138.43798 | 4114 ft | 243 kts | 233° |
| 2026-05-04 01:43 | -35.02405 | 138.42203 | 4978 ft | 246 kts | 233° |
| 2026-05-04 01:44 | -35.03464 | 138.40552 | 5828 ft | 248 kts | 239° |
| 2026-05-04 01:44 | -35.03963 | 138.39269 | 6387 ft | 248 kts | 253° |
| 2026-05-04 01:44 | -35.04128 | 138.37204 | 7176 ft | 252 kts | 275° |
| 2026-05-04 01:44 | -35.03560 | 138.35158 | 7978 ft | 261 kts | 297° |
| 2026-05-04 01:45 | -35.01833 | 138.32974 | 9029 ft | 274 kts | 316° |
| 2026-05-04 01:45 | -35.00834 | 138.32010 | 9548 ft | 278 kts | 316° |
| 2026-05-04 01:45 | -34.97915 | 138.28765 | 10631 ft | 297 kts | 300° |
| 2026-05-04 01:46 | -34.97062 | 138.26411 | 10909 ft | 312 kts | 280° |
| 2026-05-04 01:46 | -34.96965 | 138.23712 | 11172 ft | 329 kts | 264° |
| 2026-05-04 01:46 | -34.97216 | 138.20858 | 11431 ft | 348 kts | 263° |
| 2026-05-04 01:46 | -34.97495 | 138.17884 | 11922 ft | 357 kts | 263° |
| 2026-05-04 01:47 | -34.97763 | 138.14847 | 12545 ft | 361 kts | 263° |
| 2026-05-04 01:47 | -34.98014 | 138.11784 | 13176 ft | 364 kts | 264° |
| 2026-05-04 01:47 | -34.98264 | 138.08704 | 13782 ft | 367 kts | 264° |
| 2026-05-04 01:47 | -34.98511 | 138.05596 | 14375 ft | 369 kts | 264° |
| 2026-05-04 01:48 | -34.98762 | 138.02469 | 14934 ft | 372 kts | 264° |
| 2026-05-04 01:48 | -34.99008 | 137.99315 | 15478 ft | 374 kts | 264° |
| 2026-05-04 01:48 | -34.99255 | 137.96149 | 15979 ft | 377 kts | 263° |
| 2026-05-04 01:48 | -34.99505 | 137.92989 | 16475 ft | 379 kts | 263° |
| 2026-05-04 01:49 | -34.99754 | 137.89770 | 16944 ft | 382 kts | 263° |
| 2026-05-04 01:49 | -35.00004 | 137.86533 | 17425 ft | 384 kts | 263° |
| 2026-05-04 01:49 | -35.00256 | 137.83280 | 17871 ft | 387 kts | 263° |
| 2026-05-04 01:49 | -35.00508 | 137.80005 | 18324 ft | 388 kts | 263° |
| 2026-05-04 01:50 | -35.00763 | 137.76717 | 18761 ft | 391 kts | 263° |
| 2026-05-04 01:50 | -35.01015 | 137.73403 | 19200 ft | 393 kts | 263° |
| 2026-05-04 01:50 | -35.01268 | 137.70067 | 19621 ft | 395 kts | 263° |
| 2026-05-04 01:50 | -35.01521 | 137.66724 | 20041 ft | 397 kts | 263° |
| 2026-05-04 01:51 | -35.01775 | 137.63361 | 20445 ft | 400 kts | 263° |
| 2026-05-04 01:51 | -35.02034 | 137.59965 | 20844 ft | 402 kts | 263° |
| 2026-05-04 01:51 | -35.02287 | 137.56607 | 21249 ft | 405 kts | 263° |
| 2026-05-04 01:51 | -35.02543 | 137.53176 | 21665 ft | 407 kts | 263° |
| 2026-05-04 01:52 | -35.02801 | 137.49728 | 22088 ft | 409 kts | 263° |
| 2026-05-04 01:52 | -35.03061 | 137.46264 | 22509 ft | 411 kts | 262° |
| 2026-05-04 01:52 | -35.03319 | 137.42778 | 22916 ft | 414 kts | 262° |
| 2026-05-04 01:52 | -35.03577 | 137.39273 | 23320 ft | 416 kts | 262° |
| 2026-05-04 01:53 | -35.03836 | 137.35749 | 23728 ft | 418 kts | 262° |
| 2026-05-04 01:53 | -35.04098 | 137.32203 | 24123 ft | 421 kts | 262° |
| 2026-05-04 01:53 | -35.04362 | 137.28639 | 24510 ft | 423 kts | 262° |
| 2026-05-04 01:53 | -35.04619 | 137.25047 | 24886 ft | 426 kts | 262° |
| 2026-05-04 01:54 | -35.04873 | 137.21439 | 25254 ft | 428 kts | 262° |
| 2026-05-04 01:54 | -35.05133 | 137.17812 | 25602 ft | 430 kts | 262° |
| 2026-05-04 01:54 | -35.05396 | 137.14178 | 26027 ft | 430 kts | 262° |
| 2026-05-04 01:54 | -35.05651 | 137.10548 | 26487 ft | 428 kts | 262° |
| 2026-05-04 01:55 | -35.05899 | 137.06935 | 26957 ft | 427 kts | 262° |
| 2026-05-04 01:55 | -35.06143 | 137.03368 | 27376 ft | 427 kts | 262° |
| 2026-05-04 01:55 | -35.06391 | 136.99754 | 27796 ft | 426 kts | 262° |
| 2026-05-04 01:55 | -35.06640 | 136.96166 | 28208 ft | 425 kts | 262° |
| 2026-05-04 01:56 | -35.06894 | 136.92576 | 28605 ft | 424 kts | 262° |
| 2026-05-04 01:56 | -35.07145 | 136.88998 | 29007 ft | 422 kts | 262° |
| 2026-05-04 01:56 | -35.07392 | 136.85432 | 29397 ft | 421 kts | 262° |
| 2026-05-04 01:56 | -35.07635 | 136.81873 | 29777 ft | 420 kts | 262° |
| 2026-05-04 01:57 | -35.07875 | 136.78319 | 30147 ft | 420 kts | 262° |
| 2026-05-04 01:57 | -35.08117 | 136.74774 | 30514 ft | 418 kts | 262° |
| 2026-05-04 01:57 | -35.08358 | 136.71243 | 30883 ft | 417 kts | 262° |
| 2026-05-04 01:57 | -35.08598 | 136.67706 | 31232 ft | 417 kts | 262° |
| 2026-05-04 01:58 | -35.08837 | 136.64182 | 31560 ft | 416 kts | 262° |
| 2026-05-04 01:58 | -35.09076 | 136.60669 | 31895 ft | 415 kts | 262° |
| 2026-05-04 01:58 | -35.09313 | 136.57160 | 32235 ft | 413 kts | 262° |
| 2026-05-04 01:58 | -35.09549 | 136.53711 | 32546 ft | 413 kts | 262° |
| 2026-05-04 01:59 | -35.09781 | 136.50218 | 32856 ft | 412 kts | 262° |
| 2026-05-04 01:59 | -35.10007 | 136.46737 | 33156 ft | 411 kts | 262° |
| 2026-05-04 01:59 | -35.10227 | 136.43271 | 33451 ft | 409 kts | 262° |
| 2026-05-04 01:59 | -35.10448 | 136.39811 | 33723 ft | 408 kts | 262° |
| 2026-05-04 02:00 | -35.10670 | 136.36358 | 33978 ft | 407 kts | 262° |
| 2026-05-04 02:00 | -35.10894 | 136.32904 | 34215 ft | 407 kts | 262° |
| 2026-05-04 02:00 | -35.11116 | 136.29459 | 34454 ft | 407 kts | 262° |
| 2026-05-04 02:00 | -35.11334 | 136.26023 | 34657 ft | 407 kts | 262° |
| 2026-05-04 02:01 | -35.11558 | 136.22568 | 34845 ft | 407 kts | 262° |
| 2026-05-04 02:01 | -35.11775 | 136.19121 | 35017 ft | 407 kts | 263° |
| 2026-05-04 02:01 | -35.11992 | 136.15678 | 35194 ft | 408 kts | 263° |
| 2026-05-04 02:01 | -35.12207 | 136.12263 | 35368 ft | 408 kts | 263° |
| 2026-05-04 02:02 | -35.12424 | 136.08804 | 35543 ft | 408 kts | 263° |
| 2026-05-04 02:02 | -35.12640 | 136.05355 | 35715 ft | 407 kts | 263° |
| 2026-05-04 02:02 | -35.12855 | 136.01899 | 35864 ft | 408 kts | 263° |
| 2026-05-04 02:02 | -35.13064 | 135.98442 | 36014 ft | 408 kts | 263° |
| 2026-05-04 02:03 | -35.13491 | 135.91500 | 36089 ft | 410 kts | 263° |
| 2026-05-04 02:03 | -35.13913 | 135.84561 | 36073 ft | 410 kts | 263° |
| 2026-05-04 02:04 | -35.14330 | 135.77602 | 36072 ft | 410 kts | 263° |
| 2026-05-04 02:04 | -35.14726 | 135.70644 | 36069 ft | 411 kts | 263° |
| 2026-05-04 02:05 | -35.15131 | 135.63690 | 36068 ft | 410 kts | 263° |
| 2026-05-04 02:05 | -35.15540 | 135.56722 | 36068 ft | 411 kts | 263° |
| 2026-05-04 02:06 | -35.15941 | 135.49796 | 36066 ft | 411 kts | 263° |
| 2026-05-04 02:06 | -35.16341 | 135.42820 | 36069 ft | 411 kts | 263° |
| 2026-05-04 02:07 | -35.16742 | 135.35847 | 36072 ft | 411 kts | 263° |
| 2026-05-04 02:07 | -35.17134 | 135.28874 | 36071 ft | 411 kts | 263° |
| 2026-05-04 02:08 | -35.17518 | 135.21887 | 36077 ft | 412 kts | 263° |
| 2026-05-04 02:08 | -35.17896 | 135.14936 | 36080 ft | 412 kts | 263° |
| 2026-05-04 02:09 | -35.18276 | 135.07934 | 36081 ft | 413 kts | 263° |
| 2026-05-04 02:09 | -35.18647 | 135.00928 | 36079 ft | 414 kts | 264° |
| 2026-05-04 02:10 | -35.18574 | 134.93867 | 36079 ft | 415 kts | 268° |
| 2026-05-04 02:10 | -35.18394 | 134.86809 | 36075 ft | 416 kts | 268° |
| 2026-05-04 02:11 | -35.18221 | 134.79726 | 36085 ft | 416 kts | 268° |
| 2026-05-04 02:11 | -35.18040 | 134.72708 | 36089 ft | 416 kts | 268° |
| 2026-05-04 02:12 | -35.17853 | 134.65628 | 36091 ft | 417 kts | 268° |
| 2026-05-04 02:12 | -35.17651 | 134.58533 | 36089 ft | 417 kts | 269° |
| 2026-05-04 02:13 | -35.17463 | 134.51437 | 36089 ft | 417 kts | 268° |
| 2026-05-04 02:13 | -35.17268 | 134.44340 | 36092 ft | 417 kts | 269° |
| 2026-05-04 02:14 | -35.17071 | 134.37283 | 36100 ft | 418 kts | 269° |
| 2026-05-04 02:14 | -35.16863 | 134.30173 | 36100 ft | 419 kts | 269° |
| 2026-05-04 02:15 | -35.16648 | 134.23051 | 36092 ft | 419 kts | 269° |
| 2026-05-04 02:15 | -35.16432 | 134.15934 | 36090 ft | 419 kts | 269° |
| 2026-05-04 02:16 | -35.16208 | 134.08817 | 36090 ft | 419 kts | 269° |
| 2026-05-04 02:16 | -35.15992 | 134.01703 | 36091 ft | 419 kts | 269° |
| 2026-05-04 02:17 | -35.15763 | 133.94568 | 36097 ft | 421 kts | 269° |
| 2026-05-04 02:17 | -35.15530 | 133.87425 | 36102 ft | 421 kts | 269° |
| 2026-05-04 02:18 | -35.15290 | 133.80316 | 36100 ft | 422 kts | 269° |
| 2026-05-04 02:18 | -35.15055 | 133.73148 | 36101 ft | 421 kts | 269° |
| 2026-05-04 02:19 | -35.14814 | 133.65989 | 36101 ft | 421 kts | 269° |
| 2026-05-04 02:19 | -35.14555 | 133.58837 | 36109 ft | 421 kts | 269° |
| 2026-05-04 02:20 | -35.14301 | 133.51694 | 36107 ft | 421 kts | 269° |
| 2026-05-04 02:20 | -35.14044 | 133.44541 | 36114 ft | 421 kts | 269° |
| 2026-05-04 02:21 | -35.13784 | 133.37382 | 36113 ft | 422 kts | 269° |
| 2026-05-04 02:21 | -35.13513 | 133.30263 | 36115 ft | 422 kts | 269° |
| 2026-05-04 02:22 | -35.13242 | 133.23101 | 36117 ft | 422 kts | 269° |
| 2026-05-04 02:22 | -35.12967 | 133.15922 | 36123 ft | 422 kts | 269° |
| 2026-05-04 02:23 | -35.12687 | 133.08800 | 36123 ft | 422 kts | 269° |
| 2026-05-04 02:23 | -35.12404 | 133.01632 | 36121 ft | 423 kts | 270° |
| 2026-05-04 02:24 | -35.12116 | 132.94463 | 36128 ft | 423 kts | 270° |
| 2026-05-04 02:24 | -35.11824 | 132.87288 | 36167 ft | 424 kts | 270° |
| 2026-05-04 02:25 | -35.11528 | 132.80096 | 36197 ft | 424 kts | 270° |
| 2026-05-04 02:25 | -35.11207 | 132.72912 | 36195 ft | 423 kts | 270° |
| 2026-05-04 02:26 | -35.10903 | 132.65720 | 36198 ft | 423 kts | 270° |
| 2026-05-04 02:26 | -35.10603 | 132.58541 | 36200 ft | 424 kts | 270° |
| 2026-05-04 02:27 | -35.10290 | 132.51348 | 36200 ft | 424 kts | 270° |
| 2026-05-04 02:27 | -35.09974 | 132.44210 | 36209 ft | 424 kts | 270° |
| 2026-05-04 02:28 | -35.09657 | 132.37024 | 36210 ft | 423 kts | 270° |
| 2026-05-04 02:28 | -35.09328 | 132.29839 | 36211 ft | 423 kts | 270° |
| 2026-05-04 02:29 | -35.08994 | 132.22643 | 36211 ft | 425 kts | 270° |
| 2026-05-04 02:29 | -35.08660 | 132.15492 | 36210 ft | 424 kts | 270° |
| 2026-05-04 02:30 | -35.08313 | 132.08304 | 36207 ft | 424 kts | 270° |
| 2026-05-04 02:30 | -35.07969 | 132.01105 | 36191 ft | 424 kts | 270° |
| 2026-05-04 02:31 | -35.07615 | 131.93894 | 36188 ft | 425 kts | 270° |
| 2026-05-04 02:31 | -35.07256 | 131.86685 | 36191 ft | 425 kts | 270° |
| 2026-05-04 02:32 | -35.06903 | 131.79513 | 36196 ft | 425 kts | 270° |
| 2026-05-04 02:32 | -35.06538 | 131.72303 | 36199 ft | 426 kts | 270° |
| 2026-05-04 02:33 | -35.06228 | 131.66260 | 36200 ft | 426 kts | 270° |
| 2026-05-04 02:33 | -35.05851 | 131.59038 | 36200 ft | 426 kts | 271° |
| 2026-05-04 02:34 | -35.05478 | 131.51852 | 36200 ft | 426 kts | 270° |
| 2026-05-04 02:34 | -35.04851 | 131.44631 | 36200 ft | 428 kts | 274° |
| 2026-05-04 02:35 | -35.04108 | 131.37425 | 36209 ft | 428 kts | 274° |
| 2026-05-04 02:35 | -35.03368 | 131.30216 | 36213 ft | 428 kts | 274° |
| 2026-05-04 02:36 | -35.02620 | 131.23014 | 36212 ft | 428 kts | 274° |
| 2026-05-04 02:36 | -35.01865 | 131.15798 | 36210 ft | 428 kts | 274° |
| 2026-05-04 02:37 | -35.01117 | 131.08586 | 36211 ft | 428 kts | 274° |
| 2026-05-04 02:37 | -35.00372 | 131.01415 | 36219 ft | 429 kts | 274° |
| 2026-05-04 02:38 | -34.99615 | 130.94199 | 36220 ft | 429 kts | 274° |
| 2026-05-04 02:38 | -34.98854 | 130.86984 | 36220 ft | 429 kts | 274° |
| 2026-05-04 02:39 | -34.98089 | 130.79761 | 36221 ft | 429 kts | 274° |
| 2026-05-04 02:39 | -34.97321 | 130.72544 | 36220 ft | 429 kts | 274° |
| 2026-05-04 02:40 | -34.96551 | 130.65372 | 36229 ft | 430 kts | 274° |
| 2026-05-04 02:40 | -34.95772 | 130.58151 | 36228 ft | 430 kts | 274° |
| 2026-05-04 02:41 | -34.94989 | 130.50928 | 36230 ft | 430 kts | 274° |
| 2026-05-04 02:41 | -34.94201 | 130.43691 | 36230 ft | 430 kts | 274° |
| 2026-05-04 02:42 | -34.93406 | 130.36459 | 36230 ft | 431 kts | 274° |
| 2026-05-04 02:42 | -34.92606 | 130.29235 | 36238 ft | 430 kts | 274° |
| 2026-05-04 02:43 | -34.91806 | 130.22010 | 36240 ft | 430 kts | 274° |
| 2026-05-04 02:43 | -34.91006 | 130.14822 | 36239 ft | 430 kts | 274° |
| 2026-05-04 02:44 | -34.90195 | 130.07594 | 36241 ft | 431 kts | 274° |
| 2026-05-04 02:44 | -34.89380 | 130.00373 | 36238 ft | 430 kts | 274° |
| 2026-05-04 02:45 | -34.88561 | 129.93132 | 36239 ft | 431 kts | 274° |
| 2026-05-04 02:45 | -34.87736 | 129.85901 | 36247 ft | 432 kts | 274° |
| 2026-05-04 02:46 | -34.86911 | 129.78702 | 36233 ft | 432 kts | 274° |
| 2026-05-04 02:46 | -34.86075 | 129.71455 | 36231 ft | 432 kts | 274° |
| 2026-05-04 02:47 | -34.85236 | 129.64217 | 36231 ft | 432 kts | 274° |
| 2026-05-04 02:47 | -34.84392 | 129.56964 | 36233 ft | 432 kts | 274° |
| 2026-05-04 02:48 | -34.83543 | 129.49717 | 36240 ft | 432 kts | 274° |
| 2026-05-04 02:48 | -34.82692 | 129.42476 | 36242 ft | 432 kts | 275° |
| 2026-05-04 02:49 | -34.81840 | 129.35273 | 36239 ft | 433 kts | 274° |
| 2026-05-04 02:49 | -34.80976 | 129.28016 | 36240 ft | 433 kts | 275° |
| 2026-05-04 02:50 | -34.80110 | 129.20768 | 36240 ft | 433 kts | 274° |
| 2026-05-04 02:50 | -34.79242 | 129.13532 | 36233 ft | 433 kts | 274° |
| 2026-05-04 02:51 | -34.78368 | 129.06278 | 36237 ft | 433 kts | 275° |
| 2026-05-04 02:51 | -34.77486 | 128.99021 | 36241 ft | 433 kts | 274° |
| 2026-05-04 02:52 | -34.76605 | 128.91813 | 36249 ft | 433 kts | 274° |
| 2026-05-04 02:52 | -34.75716 | 128.84573 | 36251 ft | 433 kts | 274° |
| 2026-05-04 02:53 | -34.74823 | 128.77317 | 36251 ft | 433 kts | 275° |
| 2026-05-04 02:53 | -34.73928 | 128.70076 | 36251 ft | 434 kts | 275° |
| 2026-05-04 02:54 | -34.73022 | 128.62810 | 36251 ft | 433 kts | 274° |
| 2026-05-04 02:54 | -34.72119 | 128.55561 | 36251 ft | 434 kts | 274° |
| 2026-05-04 02:55 | -34.70760 | 128.44738 | 36251 ft | 434 kts | 274° |
| 2026-05-04 02:56 | -34.69840 | 128.37489 | 36250 ft | 434 kts | 275° |
| 2026-05-04 02:56 | -34.68913 | 128.30248 | 36251 ft | 434 kts | 274° |
| 2026-05-04 02:57 | -34.67985 | 128.22997 | 36260 ft | 434 kts | 275° |
| 2026-05-04 02:57 | -34.67061 | 128.15800 | 36260 ft | 434 kts | 275° |
| 2026-05-04 02:58 | -34.66127 | 128.08564 | 36261 ft | 433 kts | 275° |
| 2026-05-04 02:58 | -34.65188 | 128.01329 | 36301 ft | 433 kts | 275° |
| 2026-05-04 02:59 | -34.64247 | 127.94096 | 36306 ft | 434 kts | 275° |
| 2026-05-04 02:59 | -34.63300 | 127.86853 | 36305 ft | 434 kts | 274° |
| 2026-05-04 03:00 | -34.62350 | 127.79605 | 36318 ft | 435 kts | 275° |
| 2026-05-04 03:00 | -34.61395 | 127.72381 | 36305 ft | 435 kts | 275° |
| 2026-05-04 03:01 | -34.60433 | 127.65124 | 36309 ft | 435 kts | 275° |
| 2026-05-04 03:01 | -34.59468 | 127.57867 | 36311 ft | 435 kts | 275° |
| 2026-05-04 03:02 | -34.58497 | 127.50612 | 36319 ft | 435 kts | 275° |
| 2026-05-04 03:02 | -34.57521 | 127.43353 | 36315 ft | 435 kts | 275° |
| 2026-05-04 03:03 | -34.56542 | 127.36103 | 36325 ft | 435 kts | 275° |
| 2026-05-04 03:03 | -34.55560 | 127.28851 | 36329 ft | 436 kts | 275° |
| 2026-05-04 03:04 | -34.54580 | 127.21641 | 36331 ft | 436 kts | 275° |
| 2026-05-04 03:04 | -34.53587 | 127.14388 | 36318 ft | 436 kts | 275° |
| 2026-05-04 03:05 | -34.52589 | 127.07131 | 36314 ft | 436 kts | 274° |
| 2026-05-04 03:05 | -34.51584 | 126.99868 | 36317 ft | 436 kts | 275° |
| 2026-05-04 03:06 | -34.50581 | 126.92638 | 36319 ft | 437 kts | 275° |
| 2026-05-04 03:06 | -34.49566 | 126.85373 | 36318 ft | 437 kts | 276° |
| 2026-05-04 03:07 | -34.48559 | 126.78161 | 36317 ft | 436 kts | 276° |
| 2026-05-04 03:07 | -34.47535 | 126.70880 | 36319 ft | 435 kts | 276° |
| 2026-05-04 03:08 | -34.46517 | 126.63689 | 36336 ft | 435 kts | 276° |
| 2026-05-04 03:08 | -34.45492 | 126.56462 | 36328 ft | 435 kts | 276° |
| 2026-05-04 03:09 | -34.44463 | 126.49240 | 36330 ft | 435 kts | 276° |
| 2026-05-04 03:09 | -34.43432 | 126.42031 | 36326 ft | 434 kts | 276° |
| 2026-05-04 03:10 | -34.42393 | 126.34822 | 36328 ft | 434 kts | 276° |
| 2026-05-04 03:10 | -34.41358 | 126.27650 | 36325 ft | 434 kts | 276° |
| 2026-05-04 03:11 | -34.40315 | 126.20458 | 36333 ft | 434 kts | 276° |
| 2026-05-04 03:11 | -34.39266 | 126.13263 | 36328 ft | 434 kts | 276° |
| 2026-05-04 03:12 | -34.38213 | 126.06063 | 36337 ft | 433 kts | 277° |
| 2026-05-04 03:12 | -34.37163 | 125.98912 | 36335 ft | 434 kts | 276° |
| 2026-05-04 03:13 | -34.36103 | 125.91724 | 36328 ft | 433 kts | 277° |
| 2026-05-04 03:13 | -34.35041 | 125.84548 | 36333 ft | 433 kts | 277° |
| 2026-05-04 03:14 | -34.33972 | 125.77366 | 36339 ft | 433 kts | 277° |
| 2026-05-04 03:14 | -34.32906 | 125.70225 | 36339 ft | 433 kts | 277° |
| 2026-05-04 03:15 | -34.31830 | 125.63052 | 36337 ft | 433 kts | 277° |
| 2026-05-04 03:15 | -34.30749 | 125.55881 | 36344 ft | 433 kts | 277° |
| 2026-05-04 03:16 | -34.29669 | 125.48728 | 36342 ft | 433 kts | 277° |
| 2026-05-04 03:16 | -34.28579 | 125.41558 | 36331 ft | 433 kts | 277° |
| 2026-05-04 03:17 | -34.27496 | 125.34448 | 36329 ft | 432 kts | 277° |
| 2026-05-04 03:17 | -34.26405 | 125.27298 | 36331 ft | 432 kts | 277° |
| 2026-05-04 03:18 | -34.25300 | 125.20102 | 36328 ft | 432 kts | 277° |
| 2026-05-04 03:18 | -34.24203 | 125.13001 | 36329 ft | 432 kts | 277° |
| 2026-05-04 03:19 | -34.23099 | 125.05873 | 36339 ft | 432 kts | 277° |
| 2026-05-04 03:19 | -34.21986 | 124.98724 | 36343 ft | 432 kts | 277° |
| 2026-05-04 03:20 | -34.21054 | 124.92792 | 36338 ft | 432 kts | 277° |
| 2026-05-04 03:20 | -34.19937 | 124.85659 | 36336 ft | 432 kts | 277° |
| 2026-05-04 03:21 | -34.18807 | 124.78533 | 36345 ft | 431 kts | 277° |
| 2026-05-04 03:21 | -34.17669 | 124.71412 | 36342 ft | 431 kts | 277° |
| 2026-05-04 03:22 | -34.16546 | 124.64342 | 36341 ft | 431 kts | 277° |
| 2026-05-04 03:22 | -34.15414 | 124.57227 | 36342 ft | 431 kts | 277° |
| 2026-05-04 03:23 | -34.14270 | 124.50121 | 36345 ft | 431 kts | 277° |
| 2026-05-04 03:23 | -34.13124 | 124.43025 | 36335 ft | 430 kts | 277° |
| 2026-05-04 03:24 | -34.11982 | 124.35941 | 36344 ft | 430 kts | 277° |
| 2026-05-04 03:24 | -34.10833 | 124.28850 | 36349 ft | 430 kts | 277° |
| 2026-05-04 03:25 | -34.09685 | 124.21807 | 36348 ft | 430 kts | 277° |
| 2026-05-04 03:25 | -34.08526 | 124.14725 | 36349 ft | 430 kts | 277° |
| 2026-05-04 03:26 | -34.07366 | 124.07650 | 36346 ft | 430 kts | 277° |
| 2026-05-04 03:26 | -34.06200 | 124.00571 | 36350 ft | 430 kts | 277° |
| 2026-05-04 03:27 | -34.05029 | 123.93505 | 36351 ft | 430 kts | 277° |
| 2026-05-04 03:27 | -34.03849 | 123.86401 | 36350 ft | 430 kts | 277° |
| 2026-05-04 03:28 | -34.02676 | 123.79359 | 36349 ft | 431 kts | 277° |
| 2026-05-04 03:28 | -34.01494 | 123.72289 | 36349 ft | 430 kts | 278° |
| 2026-05-04 03:29 | -34.00306 | 123.65214 | 36358 ft | 430 kts | 278° |
| 2026-05-04 03:29 | -33.99117 | 123.58145 | 36361 ft | 430 kts | 277° |
| 2026-05-04 03:30 | -33.97921 | 123.51078 | 36361 ft | 430 kts | 278° |
| 2026-05-04 03:30 | -33.96719 | 123.44009 | 36359 ft | 430 kts | 277° |
| 2026-05-04 03:31 | -33.95520 | 123.36968 | 36355 ft | 429 kts | 277° |
| 2026-05-04 03:31 | -33.94317 | 123.29962 | 36358 ft | 429 kts | 278° |
| 2026-05-04 03:32 | -33.93107 | 123.22923 | 36365 ft | 429 kts | 277° |
| 2026-05-04 03:32 | -33.91895 | 123.15885 | 36378 ft | 429 kts | 277° |
| 2026-05-04 03:33 | -33.90681 | 123.08862 | 36380 ft | 428 kts | 277° |
| 2026-05-04 03:33 | -33.89462 | 123.01837 | 36381 ft | 428 kts | 277° |
| 2026-05-04 03:34 | -33.88244 | 122.94818 | 36381 ft | 428 kts | 277° |
| 2026-05-04 03:34 | -33.87027 | 122.87855 | 36379 ft | 427 kts | 277° |
| 2026-05-04 03:35 | -33.85803 | 122.80876 | 36382 ft | 427 kts | 277° |
| 2026-05-04 03:35 | -33.84575 | 122.73888 | 36384 ft | 426 kts | 277° |
| 2026-05-04 03:36 | -33.83346 | 122.66923 | 36389 ft | 426 kts | 277° |
| 2026-05-04 03:36 | -33.82112 | 122.59961 | 36393 ft | 425 kts | 277° |
| 2026-05-04 03:37 | -33.80870 | 122.52993 | 36391 ft | 425 kts | 277° |
| 2026-05-04 03:37 | -33.79639 | 122.46093 | 36388 ft | 425 kts | 277° |
| 2026-05-04 03:38 | -33.78396 | 122.39139 | 36392 ft | 425 kts | 277° |
| 2026-05-04 03:38 | -33.77146 | 122.32194 | 36388 ft | 425 kts | 277° |
| 2026-05-04 03:39 | -33.75895 | 122.25258 | 36388 ft | 424 kts | 277° |
| 2026-05-04 03:39 | -33.74641 | 122.18322 | 36389 ft | 424 kts | 277° |
| 2026-05-04 03:40 | -33.73382 | 122.11389 | 36392 ft | 424 kts | 277° |
| 2026-05-04 03:40 | -33.72122 | 122.04464 | 36385 ft | 424 kts | 277° |
| 2026-05-04 03:41 | -33.70859 | 121.97545 | 36388 ft | 424 kts | 277° |
| 2026-05-04 03:41 | -33.69600 | 121.90672 | 36390 ft | 424 kts | 277° |
| 2026-05-04 03:42 | -33.68325 | 121.83747 | 36388 ft | 425 kts | 278° |
| 2026-05-04 03:42 | -33.66498 | 121.76951 | 36403 ft | 428 kts | 284° |
| 2026-05-04 03:43 | -33.64487 | 121.70217 | 36401 ft | 428 kts | 284° |
| 2026-05-04 03:43 | -33.62489 | 121.63487 | 36395 ft | 428 kts | 284° |
| 2026-05-04 03:44 | -33.60487 | 121.56754 | 36403 ft | 428 kts | 284° |
| 2026-05-04 03:44 | -33.58486 | 121.50026 | 36399 ft | 428 kts | 284° |
| 2026-05-04 03:45 | -33.56493 | 121.43348 | 36401 ft | 428 kts | 285° |
| 2026-05-04 03:45 | -33.54487 | 121.36627 | 36412 ft | 427 kts | 285° |
| 2026-05-04 03:46 | -33.52478 | 121.29925 | 36404 ft | 427 kts | 285° |
| 2026-05-04 03:46 | -33.50467 | 121.23220 | 36402 ft | 427 kts | 285° |
| 2026-05-04 03:47 | -33.48466 | 121.16570 | 36402 ft | 427 kts | 285° |
| 2026-05-04 03:47 | -33.46453 | 121.09887 | 36394 ft | 426 kts | 285° |
| 2026-05-04 03:48 | -33.44434 | 121.03212 | 36413 ft | 426 kts | 285° |
| 2026-05-04 03:48 | -33.42414 | 120.96551 | 36409 ft | 426 kts | 285° |
| 2026-05-04 03:49 | -33.40388 | 120.89893 | 36410 ft | 426 kts | 285° |
| 2026-05-04 03:49 | -33.38360 | 120.83234 | 36411 ft | 426 kts | 285° |
| 2026-05-04 03:50 | -33.36329 | 120.76574 | 36406 ft | 425 kts | 285° |
| 2026-05-04 03:50 | -33.34302 | 120.69939 | 36409 ft | 424 kts | 285° |
| 2026-05-04 03:51 | -33.32273 | 120.63315 | 36412 ft | 425 kts | 285° |
| 2026-05-04 03:51 | -33.30253 | 120.56737 | 36410 ft | 424 kts | 285° |
| 2026-05-04 03:52 | -33.28212 | 120.50107 | 36416 ft | 424 kts | 285° |
| 2026-05-04 03:52 | -33.26168 | 120.43482 | 36408 ft | 424 kts | 285° |
| 2026-05-04 03:53 | -33.24127 | 120.36874 | 36415 ft | 424 kts | 285° |
| 2026-05-04 03:53 | -33.22094 | 120.30314 | 36408 ft | 424 kts | 286° |
| 2026-05-04 03:54 | -33.20043 | 120.23707 | 36407 ft | 424 kts | 286° |
| 2026-05-04 03:54 | -33.17993 | 120.17117 | 36414 ft | 424 kts | 286° |
| 2026-05-04 03:55 | -33.15936 | 120.10522 | 36409 ft | 423 kts | 286° |